Rochert, Minnesota
Current Conditions -  °F | °C
As of 6:35 PM on Tuesday 25 Nov 2014 (Local Time) from KDTL Reporting Station
Clear Clear  
Wind Chill: 14°   Ceiling: Unl
Heat Index: 23°   Visibility: 10mi
Dew Point: 16°   Wind: 8mph
Humidity: 74%   Direction: 140°SE
Pressure: 29.91"   Gusts: NA
Location:  46.86°N, 95.69°W
Report Text: KDTL 260035Z AUTO 14007KT 10SM CLR M05/M09 A2991 RMK AO2
Loading
Personal Weather Stations






























Interactive Weather Map New forecast layout! Learn more

10-Day Weather Forecast

Advertisements
Track Severe Weather on mobile